sensor_id;sensor_type;location;lat;lon;timestamp;P1;durP1;ratioP1;P2;durP2;ratioP2
11004;SDS011;5555;59.622;16.556;2023-02-01T00:01:37;9.00;;;4.13;;
11004;SDS011;5555;59.622;16.556;2023-02-01T00:04:02;10.60;;;4.80;;
11004;SDS011;5555;59.622;16.556;2023-02-01T00:06:28;10.30;;;4.03;;
11004;SDS011;5555;59.622;16.556;2023-02-01T00:08:54;8.90;;;3.77;;
11004;SDS011;5555;59.622;16.556;2023-02-01T00:11:21;11.20;;;4.60;;
11004;SDS011;5555;59.622;16.556;2023-02-01T00:13:47;11.67;;;4.43;;
11004;SDS011;5555;59.622;16.556;2023-02-01T00:16:15;8.40;;;4.10;;
11004;SDS011;5555;59.622;16.556;2023-02-01T00:18:43;8.80;;;4.20;;
11004;SDS011;5555;59.622;16.556;2023-02-01T00:21:10;6.03;;;3.90;;
11004;SDS011;5555;59.622;16.556;2023-02-01T00:23:36;7.97;;;4.03;;
11004;SDS011;5555;59.622;16.556;2023-02-01T00:26:04;9.27;;;4.23;;
11004;SDS011;5555;59.622;16.556;2023-02-01T00:28:30;9.07;;;4.50;;
11004;SDS011;5555;59.622;16.556;2023-02-01T00:30:57;9.27;;;3.80;;
11004;SDS011;5555;59.622;16.556;2023-02-01T00:33:27;8.83;;;3.80;;
11004;SDS011;5555;59.622;16.556;2023-02-01T00:36:00;8.00;;;4.00;;
11004;SDS011;5555;59.622;16.556;2023-02-01T00:38:31;7.23;;;3.60;;
11004;SDS011;5555;59.622;16.556;2023-02-01T00:41:04;7.67;;;3.20;;
11004;SDS011;5555;59.622;16.556;2023-02-01T00:43:32;7.67;;;3.30;;
11004;SDS011;5555;59.622;16.556;2023-02-01T00:45:58;5.50;;;2.90;;
11004;SDS011;5555;59.622;16.556;2023-02-01T00:48:24;7.13;;;3.10;;
11004;SDS011;5555;59.622;16.556;2023-02-01T00:50:50;6.83;;;3.30;;
11004;SDS011;5555;59.622;16.556;2023-02-01T00:53:16;7.10;;;2.73;;
11004;SDS011;5555;59.622;16.556;2023-02-01T00:55:44;10.00;;;3.37;;
11004;SDS011;5555;59.622;16.556;2023-02-01T00:58:10;7.33;;;2.90;;
11004;SDS011;5555;59.622;16.556;2023-02-01T01:00:36;8.77;;;3.17;;
11004;SDS011;5555;59.622;16.556;2023-02-01T01:03:02;7.97;;;3.00;;
11004;SDS011;5555;59.622;16.556;2023-02-01T01:05:42;11.63;;;3.17;;
11004;SDS011;5555;59.622;16.556;2023-02-01T01:08:14;9.47;;;3.20;;
11004;SDS011;5555;59.622;16.556;2023-02-01T01:10:41;7.37;;;3.90;;
11004;SDS011;5555;59.622;16.556;2023-02-01T01:13:07;10.53;;;4.03;;
11004;SDS011;5555;59.622;16.556;2023-02-01T01:15:37;10.07;;;3.37;;
11004;SDS011;5555;59.622;16.556;2023-02-01T01:18:04;6.97;;;3.17;;
11004;SDS011;5555;59.622;16.556;2023-02-01T01:20:30;8.33;;;3.93;;
11004;SDS011;5555;59.622;16.556;2023-02-01T01:22:58;7.20;;;3.83;;
11004;SDS011;5555;59.622;16.556;2023-02-01T01:25:24;6.63;;;3.77;;
11004;SDS011;5555;59.622;16.556;2023-02-01T01:27:49;4.40;;;2.90;;
11004;SDS011;5555;59.622;16.556;2023-02-01T01:30:15;9.40;;;3.60;;
11004;SDS011;5555;59.622;16.556;2023-02-01T01:32:41;8.07;;;3.67;;
11004;SDS011;5555;59.622;16.556;2023-02-01T01:35:07;6.40;;;3.40;;
11004;SDS011;5555;59.622;16.556;2023-02-01T01:37:32;8.63;;;3.57;;
11004;SDS011;5555;59.622;16.556;2023-02-01T01:39:58;6.00;;;2.90;;
11004;SDS011;5555;59.622;16.556;2023-02-01T01:42:24;4.60;;;2.93;;
11004;SDS011;5555;59.622;16.556;2023-02-01T01:45:00;9.40;;;3.00;;
11004;SDS011;5555;59.622;16.556;2023-02-01T01:47:39;6.03;;;2.73;;
11004;SDS011;5555;59.622;16.556;2023-02-01T01:50:13;6.73;;;3.50;;
11004;SDS011;5555;59.622;16.556;2023-02-01T01:52:42;5.27;;;3.17;;
11004;SDS011;5555;59.622;16.556;2023-02-01T01:55:14;8.10;;;3.20;;
11004;SDS011;5555;59.622;16.556;2023-02-01T01:57:42;6.93;;;3.33;;
11004;SDS011;5555;59.622;16.556;2023-02-01T02:00:13;3.10;;;2.80;;
11004;SDS011;5555;59.622;16.556;2023-02-01T02:02:43;7.17;;;3.33;;
11004;SDS011;5555;59.622;16.556;2023-02-01T02:05:11;8.63;;;3.70;;
11004;SDS011;5555;59.622;16.556;2023-02-01T02:07:41;6.17;;;2.77;;
11004;SDS011;5555;59.622;16.556;2023-02-01T02:10:11;6.37;;;3.27;;
11004;SDS011;5555;59.622;16.556;2023-02-01T02:12:39;5.13;;;2.60;;
11004;SDS011;5555;59.622;16.556;2023-02-01T02:15:06;10.43;;;3.47;;
11004;SDS011;5555;59.622;16.556;2023-02-01T02:37:08;12.37;;;2.90;;
11004;SDS011;5555;59.622;16.556;2023-02-01T02:45:49;6.67;;;2.93;;
11004;SDS011;5555;59.622;16.556;2023-02-01T02:48:44;9.03;;;3.60;;
11004;SDS011;5555;59.622;16.556;2023-02-01T02:51:19;6.40;;;3.37;;
11004;SDS011;5555;59.622;16.556;2023-02-01T02:54:18;5.63;;;3.20;;
11004;SDS011;5555;59.622;16.556;2023-02-01T02:57:07;6.47;;;2.80;;
11004;SDS011;5555;59.622;16.556;2023-02-01T02:59:54;9.43;;;2.70;;
11004;SDS011;5555;59.622;16.556;2023-02-01T03:02:41;7.57;;;3.30;;
11004;SDS011;5555;59.622;16.556;2023-02-01T03:05:25;7.33;;;3.17;;
11004;SDS011;5555;59.622;16.556;2023-02-01T03:08:08;8.73;;;3.43;;
11004;SDS011;5555;59.622;16.556;2023-02-01T03:13:24;6.50;;;2.80;;
11004;SDS011;5555;59.622;16.556;2023-02-01T03:16:01;6.57;;;3.30;;
11004;SDS011;5555;59.622;16.556;2023-02-01T03:21:45;8.27;;;3.10;;
11004;SDS011;5555;59.622;16.556;2023-02-01T03:24:18;6.17;;;2.73;;
11004;SDS011;5555;59.622;16.556;2023-02-01T03:26:58;7.87;;;2.73;;
11004;SDS011;5555;59.622;16.556;2023-02-01T03:29:29;5.03;;;2.77;;
11004;SDS011;5555;59.622;16.556;2023-02-01T03:32:01;6.70;;;3.27;;
11004;SDS011;5555;59.622;16.556;2023-02-01T03:34:27;6.43;;;3.20;;
11004;SDS011;5555;59.622;16.556;2023-02-01T03:37:15;7.60;;;3.77;;
11004;SDS011;5555;59.622;16.556;2023-02-01T03:45:31;5.10;;;2.90;;
11004;SDS011;5555;59.622;16.556;2023-02-01T03:48:01;8.83;;;2.80;;
11004;SDS011;5555;59.622;16.556;2023-02-01T03:50:29;4.27;;;2.87;;
11004;SDS011;5555;59.622;16.556;2023-02-01T03:55:27;10.53;;;3.50;;
11004;SDS011;5555;59.622;16.556;2023-02-01T03:57:56;6.50;;;3.37;;
11004;SDS011;5555;59.622;16.556;2023-02-01T04:00:35;8.03;;;3.70;;
11004;SDS011;5555;59.622;16.556;2023-02-01T04:03:01;7.50;;;2.97;;
11004;SDS011;5555;59.622;16.556;2023-02-01T04:05:29;6.93;;;3.30;;
11004;SDS011;5555;59.622;16.556;2023-02-01T04:07:55;7.03;;;3.40;;
11004;SDS011;5555;59.622;16.556;2023-02-01T04:10:21;6.13;;;3.03;;
11004;SDS011;5555;59.622;16.556;2023-02-01T04:12:47;6.83;;;2.97;;
11004;SDS011;5555;59.622;16.556;2023-02-01T04:15:13;7.10;;;3.20;;
11004;SDS011;5555;59.622;16.556;2023-02-01T04:17:38;7.73;;;2.97;;
11004;SDS011;5555;59.622;16.556;2023-02-01T04:20:04;4.20;;;3.00;;
11004;SDS011;5555;59.622;16.556;2023-02-01T04:22:30;13.63;;;4.00;;
11004;SDS011;5555;59.622;16.556;2023-02-01T04:24:56;6.60;;;3.23;;
11004;SDS011;5555;59.622;16.556;2023-02-01T04:27:21;6.90;;;2.97;;
11004;SDS011;5555;59.622;16.556;2023-02-01T04:29:47;7.83;;;3.37;;
11004;SDS011;5555;59.622;16.556;2023-02-01T04:32:14;6.03;;;2.80;;
11004;SDS011;5555;59.622;16.556;2023-02-01T04:34:41;4.63;;;3.20;;
11004;SDS011;5555;59.622;16.556;2023-02-01T04:37:07;6.17;;;3.67;;
11004;SDS011;5555;59.622;16.556;2023-02-01T04:39:32;8.30;;;3.57;;
11004;SDS011;5555;59.622;16.556;2023-02-01T04:41:58;7.37;;;3.20;;
11004;SDS011;5555;59.622;16.556;2023-02-01T04:44:24;10.03;;;3.63;;
11004;SDS011;5555;59.622;16.556;2023-02-01T04:46:49;8.73;;;3.17;;
11004;SDS011;5555;59.622;16.556;2023-02-01T04:49:15;9.40;;;5.20;;
11004;SDS011;5555;59.622;16.556;2023-02-01T04:51:41;9.50;;;3.80;;
11004;SDS011;5555;59.622;16.556;2023-02-01T04:54:07;7.57;;;3.07;;
11004;SDS011;5555;59.622;16.556;2023-02-01T04:56:36;7.30;;;3.07;;
11004;SDS011;5555;59.622;16.556;2023-02-01T04:59:02;6.83;;;2.97;;
11004;SDS011;5555;59.622;16.556;2023-02-01T05:01:28;10.63;;;3.10;;
11004;SDS011;5555;59.622;16.556;2023-02-01T05:03:54;4.07;;;2.67;;
11004;SDS011;5555;59.622;16.556;2023-02-01T05:06:20;6.97;;;2.97;;
11004;SDS011;5555;59.622;16.556;2023-02-01T05:08:46;8.53;;;3.00;;
11004;SDS011;5555;59.622;16.556;2023-02-01T05:11:12;5.20;;;3.10;;
11004;SDS011;5555;59.622;16.556;2023-02-01T05:13:56;7.03;;;2.97;;
11004;SDS011;5555;59.622;16.556;2023-02-01T05:16:22;9.03;;;3.43;;
11004;SDS011;5555;59.622;16.556;2023-02-01T05:18:48;9.07;;;3.20;;
11004;SDS011;5555;59.622;16.556;2023-02-01T05:21:13;6.47;;;3.57;;
11004;SDS011;5555;59.622;16.556;2023-02-01T05:23:39;6.13;;;3.33;;
11004;SDS011;5555;59.622;16.556;2023-02-01T05:26:23;9.13;;;3.37;;
11004;SDS011;5555;59.622;16.556;2023-02-01T05:28:49;4.83;;;2.63;;
11004;SDS011;5555;59.622;16.556;2023-02-01T05:31:15;7.30;;;3.67;;
11004;SDS011;5555;59.622;16.556;2023-02-01T05:33:41;10.67;;;3.33;;
11004;SDS011;5555;59.622;16.556;2023-02-01T05:36:07;6.70;;;3.10;;
11004;SDS011;5555;59.622;16.556;2023-02-01T05:38:32;6.70;;;3.30;;
11004;SDS011;5555;59.622;16.556;2023-02-01T05:40:58;5.53;;;2.93;;
11004;SDS011;5555;59.622;16.556;2023-02-01T05:43:23;6.43;;;3.10;;
11004;SDS011;5555;59.622;16.556;2023-02-01T05:45:51;7.50;;;3.10;;
11004;SDS011;5555;59.622;16.556;2023-02-01T05:48:17;5.20;;;2.90;;
11004;SDS011;5555;59.622;16.556;2023-02-01T05:50:43;5.13;;;3.00;;
11004;SDS011;5555;59.622;16.556;2023-02-01T05:53:08;7.63;;;3.67;;
11004;SDS011;5555;59.622;16.556;2023-02-01T05:55:34;7.87;;;3.40;;
11004;SDS011;5555;59.622;16.556;2023-02-01T05:58:00;6.60;;;3.27;;
11004;SDS011;5555;59.622;16.556;2023-02-01T06:00:26;7.30;;;3.20;;
11004;SDS011;5555;59.622;16.556;2023-02-01T06:02:52;10.43;;;4.37;;
11004;SDS011;5555;59.622;16.556;2023-02-01T06:05:17;4.83;;;3.00;;
11004;SDS011;5555;59.622;16.556;2023-02-01T06:07:43;7.30;;;3.83;;
11004;SDS011;5555;59.622;16.556;2023-02-01T06:10:09;11.83;;;3.10;;
11004;SDS011;5555;59.622;16.556;2023-02-01T06:12:35;7.27;;;3.13;;
11004;SDS011;5555;59.622;16.556;2023-02-01T06:15:00;8.87;;;3.20;;
11004;SDS011;5555;59.622;16.556;2023-02-01T06:17:26;9.77;;;3.10;;
11004;SDS011;5555;59.622;16.556;2023-02-01T06:19:51;9.67;;;3.30;;
11004;SDS011;5555;59.622;16.556;2023-02-01T06:22:17;7.27;;;3.67;;
11004;SDS011;5555;59.622;16.556;2023-02-01T06:24:43;7.97;;;3.00;;
11004;SDS011;5555;59.622;16.556;2023-02-01T06:27:08;10.60;;;3.67;;
11004;SDS011;5555;59.622;16.556;2023-02-01T06:29:34;10.60;;;3.50;;
11004;SDS011;5555;59.622;16.556;2023-02-01T06:32:00;10.80;;;3.73;;
11004;SDS011;5555;59.622;16.556;2023-02-01T06:34:26;8.67;;;3.57;;
11004;SDS011;5555;59.622;16.556;2023-02-01T06:36:52;6.30;;;3.10;;
11004;SDS011;5555;59.622;16.556;2023-02-01T06:39:18;8.47;;;3.40;;
11004;SDS011;5555;59.622;16.556;2023-02-01T06:41:47;6.77;;;3.27;;
11004;SDS011;5555;59.622;16.556;2023-02-01T06:44:13;7.87;;;3.43;;
11004;SDS011;5555;59.622;16.556;2023-02-01T06:46:39;5.60;;;3.60;;
11004;SDS011;5555;59.622;16.556;2023-02-01T06:49:05;4.43;;;2.90;;
11004;SDS011;5555;59.622;16.556;2023-02-01T06:51:31;7.10;;;3.00;;
11004;SDS011;5555;59.622;16.556;2023-02-01T06:53:57;7.17;;;2.80;;
11004;SDS011;5555;59.622;16.556;2023-02-01T06:56:23;4.73;;;2.70;;
11004;SDS011;5555;59.622;16.556;2023-02-01T06:58:49;5.63;;;3.10;;
11004;SDS011;5555;59.622;16.556;2023-02-01T07:01:15;5.60;;;2.90;;
11004;SDS011;5555;59.622;16.556;2023-02-01T07:03:41;5.27;;;2.50;;
11004;SDS011;5555;59.622;16.556;2023-02-01T07:06:07;4.30;;;2.63;;
11004;SDS011;5555;59.622;16.556;2023-02-01T07:08:34;4.73;;;2.63;;
11004;SDS011;5555;59.622;16.556;2023-02-01T07:11:05;6.47;;;2.70;;
11004;SDS011;5555;59.622;16.556;2023-02-01T07:13:31;10.60;;;2.97;;
11004;SDS011;5555;59.622;16.556;2023-02-01T07:15:58;12.33;;;2.57;;
11004;SDS011;5555;59.622;16.556;2023-02-01T07:18:28;11.97;;;2.60;;
11004;SDS011;5555;59.622;16.556;2023-02-01T07:20:54;11.10;;;2.77;;
11004;SDS011;5555;59.622;16.556;2023-02-01T07:23:21;8.57;;;2.47;;
11004;SDS011;5555;59.622;16.556;2023-02-01T07:25:47;7.67;;;2.23;;
11004;SDS011;5555;59.622;16.556;2023-02-01T07:28:13;7.13;;;2.53;;
11004;SDS011;5555;59.622;16.556;2023-02-01T07:30:38;5.87;;;2.40;;
11004;SDS011;5555;59.622;16.556;2023-02-01T07:33:04;6.87;;;2.60;;
11004;SDS011;5555;59.622;16.556;2023-02-01T07:35:31;6.03;;;2.30;;
11004;SDS011;5555;59.622;16.556;2023-02-01T07:37:57;6.70;;;2.30;;
11004;SDS011;5555;59.622;16.556;2023-02-01T07:40:23;16.27;;;2.63;;
11004;SDS011;5555;59.622;16.556;2023-02-01T07:42:58;5.20;;;2.03;;
11004;SDS011;5555;59.622;16.556;2023-02-01T07:45:24;7.57;;;2.10;;
11004;SDS011;5555;59.622;16.556;2023-02-01T07:47:51;6.87;;;2.60;;
11004;SDS011;5555;59.622;16.556;2023-02-01T07:50:18;4.83;;;2.50;;
11004;SDS011;5555;59.622;16.556;2023-02-01T07:52:44;8.33;;;2.43;;
11004;SDS011;5555;59.622;16.556;2023-02-01T07:55:09;9.53;;;2.90;;
11004;SDS011;5555;59.622;16.556;2023-02-01T07:57:35;6.43;;;2.70;;
11004;SDS011;5555;59.622;16.556;2023-02-01T08:00:00;9.03;;;3.30;;
11004;SDS011;5555;59.622;16.556;2023-02-01T08:02:47;5.17;;;3.03;;
11004;SDS011;5555;59.622;16.556;2023-02-01T08:05:12;6.43;;;3.43;;
11004;SDS011;5555;59.622;16.556;2023-02-01T08:07:38;7.63;;;3.37;;
11004;SDS011;5555;59.622;16.556;2023-02-01T08:10:04;6.77;;;2.90;;
11004;SDS011;5555;59.622;16.556;2023-02-01T08:12:35;6.07;;;3.23;;
11004;SDS011;5555;59.622;16.556;2023-02-01T08:15:01;4.57;;;2.70;;
11004;SDS011;5555;59.622;16.556;2023-02-01T08:17:27;6.20;;;2.37;;
11004;SDS011;5555;59.622;16.556;2023-02-01T08:19:54;4.57;;;2.40;;
11004;SDS011;5555;59.622;16.556;2023-02-01T08:22:20;6.80;;;2.57;;
11004;SDS011;5555;59.622;16.556;2023-02-01T08:24:47;4.80;;;2.50;;
11004;SDS011;5555;59.622;16.556;2023-02-01T08:27:13;4.07;;;2.50;;
11004;SDS011;5555;59.622;16.556;2023-02-01T08:29:39;6.23;;;2.70;;
11004;SDS011;5555;59.622;16.556;2023-02-01T08:32:05;6.70;;;2.20;;
11004;SDS011;5555;59.622;16.556;2023-02-01T08:34:30;5.40;;;2.10;;
11004;SDS011;5555;59.622;16.556;2023-02-01T08:36:56;3.73;;;2.23;;
11004;SDS011;5555;59.622;16.556;2023-02-01T08:39:25;4.70;;;2.03;;
11004;SDS011;5555;59.622;16.556;2023-02-01T08:41:51;7.67;;;2.23;;
11004;SDS011;5555;59.622;16.556;2023-02-01T08:44:35;7.23;;;2.60;;
11004;SDS011;5555;59.622;16.556;2023-02-01T08:47:02;7.43;;;2.07;;
11004;SDS011;5555;59.622;16.556;2023-02-01T08:49:28;4.27;;;2.37;;
11004;SDS011;5555;59.622;16.556;2023-02-01T08:51:54;4.83;;;2.23;;
11004;SDS011;5555;59.622;16.556;2023-02-01T08:54:20;4.77;;;1.90;;
11004;SDS011;5555;59.622;16.556;2023-02-01T08:56:46;4.10;;;1.93;;
11004;SDS011;5555;59.622;16.556;2023-02-01T08:59:11;4.20;;;1.87;;
11004;SDS011;5555;59.622;16.556;2023-02-01T09:01:37;3.93;;;2.30;;
11004;SDS011;5555;59.622;16.556;2023-02-01T09:04:03;2.77;;;2.00;;
11004;SDS011;5555;59.622;16.556;2023-02-01T09:06:28;4.50;;;2.00;;
11004;SDS011;5555;59.622;16.556;2023-02-01T09:08:54;3.43;;;2.10;;
11004;SDS011;5555;59.622;16.556;2023-02-01T09:11:20;3.73;;;1.70;;
11004;SDS011;5555;59.622;16.556;2023-02-01T09:13:46;2.73;;;1.50;;
11004;SDS011;5555;59.622;16.556;2023-02-01T09:16:12;2.90;;;1.90;;
11004;SDS011;5555;59.622;16.556;2023-02-01T09:18:38;3.57;;;2.07;;
11004;SDS011;5555;59.622;16.556;2023-02-01T09:21:04;4.77;;;2.10;;
11004;SDS011;5555;59.622;16.556;2023-02-01T09:23:31;5.37;;;1.97;;
11004;SDS011;5555;59.622;16.556;2023-02-01T09:26:00;3.80;;;1.50;;
11004;SDS011;5555;59.622;16.556;2023-02-01T09:28:26;2.10;;;1.60;;
11004;SDS011;5555;59.622;16.556;2023-02-01T09:30:56;2.30;;;1.50;;
11004;SDS011;5555;59.622;16.556;2023-02-01T09:33:22;2.93;;;1.60;;
11004;SDS011;5555;59.622;16.556;2023-02-01T09:35:58;4.60;;;1.60;;
11004;SDS011;5555;59.622;16.556;2023-02-01T09:38:25;5.03;;;1.90;;
11004;SDS011;5555;59.622;16.556;2023-02-01T09:40:52;2.50;;;1.50;;
11004;SDS011;5555;59.622;16.556;2023-02-01T09:46:21;3.53;;;2.07;;
11004;SDS011;5555;59.622;16.556;2023-02-01T09:48:54;2.97;;;1.83;;
11004;SDS011;5555;59.622;16.556;2023-02-01T09:51:45;2.40;;;1.67;;
11004;SDS011;5555;59.622;16.556;2023-02-01T09:54:14;2.93;;;1.63;;
11004;SDS011;5555;59.622;16.556;2023-02-01T09:59:23;4.07;;;2.10;;
11004;SDS011;5555;59.622;16.556;2023-02-01T10:01:55;2.80;;;1.70;;
11004;SDS011;5555;59.622;16.556;2023-02-01T10:04:22;4.93;;;1.67;;
11004;SDS011;5555;59.622;16.556;2023-02-01T10:25:55;3.20;;;1.47;;
11004;SDS011;5555;59.622;16.556;2023-02-01T10:28:25;3.93;;;1.53;;
11004;SDS011;5555;59.622;16.556;2023-02-01T10:30:52;1.50;;;1.40;;
11004;SDS011;5555;59.622;16.556;2023-02-01T10:33:34;3.50;;;1.93;;
11004;SDS011;5555;59.622;16.556;2023-02-01T10:38:48;4.30;;;1.63;;
11004;SDS011;5555;59.622;16.556;2023-02-01T10:43:42;3.77;;;1.60;;
11004;SDS011;5555;59.622;16.556;2023-02-01T10:46:09;4.40;;;1.90;;
11004;SDS011;5555;59.622;16.556;2023-02-01T10:48:35;3.47;;;1.63;;
11004;SDS011;5555;59.622;16.556;2023-02-01T10:51:06;2.23;;;1.80;;
11004;SDS011;5555;59.622;16.556;2023-02-01T10:53:50;3.37;;;1.60;;
11004;SDS011;5555;59.622;16.556;2023-02-01T10:56:26;5.00;;;1.93;;
11004;SDS011;5555;59.622;16.556;2023-02-01T10:58:59;2.53;;;1.47;;
11004;SDS011;5555;59.622;16.556;2023-02-01T11:01:31;4.57;;;1.80;;
11004;SDS011;5555;59.622;16.556;2023-02-01T11:04:03;3.13;;;1.50;;
11004;SDS011;5555;59.622;16.556;2023-02-01T11:06:31;2.07;;;1.23;;
11004;SDS011;5555;59.622;16.556;2023-02-01T11:11:34;1.93;;;1.03;;
11004;SDS011;5555;59.622;16.556;2023-02-01T11:14:20;3.70;;;1.43;;
11004;SDS011;5555;59.622;16.556;2023-02-01T11:16:57;4.93;;;1.20;;
11004;SDS011;5555;59.622;16.556;2023-02-01T11:19:25;3.03;;;1.40;;
11004;SDS011;5555;59.622;16.556;2023-02-01T11:21:55;1.60;;;1.10;;
11004;SDS011;5555;59.622;16.556;2023-02-01T11:24:25;4.90;;;1.20;;
11004;SDS011;5555;59.622;16.556;2023-02-01T11:26:54;4.63;;;1.50;;
11004;SDS011;5555;59.622;16.556;2023-02-01T11:29:21;3.53;;;1.90;;
11004;SDS011;5555;59.622;16.556;2023-02-01T11:31:54;3.70;;;1.80;;
11004;SDS011;5555;59.622;16.556;2023-02-01T11:34:24;4.70;;;1.80;;
11004;SDS011;5555;59.622;16.556;2023-02-01T11:36:51;4.00;;;2.00;;
11004;SDS011;5555;59.622;16.556;2023-02-01T11:39:32;2.57;;;1.70;;
11004;SDS011;5555;59.622;16.556;2023-02-01T11:42:01;3.27;;;1.87;;
11004;SDS011;5555;59.622;16.556;2023-02-01T11:44:31;3.83;;;1.77;;
11004;SDS011;5555;59.622;16.556;2023-02-01T11:47:18;2.63;;;1.70;;
11004;SDS011;5555;59.622;16.556;2023-02-01T11:49:44;3.50;;;1.83;;
11004;SDS011;5555;59.622;16.556;2023-02-01T11:52:25;4.47;;;1.03;;
11004;SDS011;5555;59.622;16.556;2023-02-01T11:55:29;2.47;;;1.07;;
11004;SDS011;5555;59.622;16.556;2023-02-01T11:58:13;3.30;;;1.20;;
11004;SDS011;5555;59.622;16.556;2023-02-01T12:03:54;4.57;;;1.10;;
11004;SDS011;5555;59.622;16.556;2023-02-01T12:07:24;4.40;;;1.30;;
11004;SDS011;5555;59.622;16.556;2023-02-01T12:09:44;1.97;;;1.33;;
11004;SDS011;5555;59.622;16.556;2023-02-01T12:23:26;2.10;;;0.90;;
11004;SDS011;5555;59.622;16.556;2023-02-01T12:28:40;3.13;;;1.37;;
11004;SDS011;5555;59.622;16.556;2023-02-01T12:39:44;2.70;;;1.13;;
11004;SDS011;5555;59.622;16.556;2023-02-01T12:42:16;1.53;;;0.77;;
11004;SDS011;5555;59.622;16.556;2023-02-01T12:47:38;3.63;;;1.00;;
11004;SDS011;5555;59.622;16.556;2023-02-01T12:50:06;2.37;;;1.20;;
11004;SDS011;5555;59.622;16.556;2023-02-01T12:52:47;2.00;;;0.90;;
11004;SDS011;5555;59.622;16.556;2023-02-01T12:55:22;1.73;;;1.20;;
11004;SDS011;5555;59.622;16.556;2023-02-01T12:58:08;2.47;;;1.40;;
11004;SDS011;5555;59.622;16.556;2023-02-01T13:00:37;2.00;;;1.13;;
11004;SDS011;5555;59.622;16.556;2023-02-01T13:06:00;2.60;;;1.40;;
11004;SDS011;5555;59.622;16.556;2023-02-01T13:08:43;3.70;;;1.50;;
11004;SDS011;5555;59.622;16.556;2023-02-01T13:11:11;2.53;;;1.23;;
11004;SDS011;5555;59.622;16.556;2023-02-01T13:13:55;1.97;;;1.13;;
11004;SDS011;5555;59.622;16.556;2023-02-01T13:16:44;2.73;;;1.20;;
11004;SDS011;5555;59.622;16.556;2023-02-01T13:19:17;3.67;;;1.40;;
11004;SDS011;5555;59.622;16.556;2023-02-01T13:21:57;2.43;;;1.77;;
11004;SDS011;5555;59.622;16.556;2023-02-01T13:24:33;3.03;;;1.13;;
11004;SDS011;5555;59.622;16.556;2023-02-01T13:27:10;4.60;;;1.20;;
11004;SDS011;5555;59.622;16.556;2023-02-01T13:37:58;2.00;;;1.50;;
11004;SDS011;5555;59.622;16.556;2023-02-01T13:43:17;3.73;;;1.30;;
11004;SDS011;5555;59.622;16.556;2023-02-01T13:45:49;2.47;;;1.30;;
11004;SDS011;5555;59.622;16.556;2023-02-01T13:48:22;3.43;;;0.90;;
11004;SDS011;5555;59.622;16.556;2023-02-01T13:50:58;2.27;;;1.30;;
11004;SDS011;5555;59.622;16.556;2023-02-01T13:53:29;2.03;;;1.10;;
11004;SDS011;5555;59.622;16.556;2023-02-01T13:55:58;4.13;;;1.10;;
11004;SDS011;5555;59.622;16.556;2023-02-01T13:58:38;3.33;;;1.20;;
11004;SDS011;5555;59.622;16.556;2023-02-01T14:01:48;1.30;;;0.90;;
11004;SDS011;5555;59.622;16.556;2023-02-01T14:16:40;2.23;;;1.10;;
11004;SDS011;5555;59.622;16.556;2023-02-01T14:19:28;2.87;;;0.97;;
11004;SDS011;5555;59.622;16.556;2023-02-01T14:24:27;2.63;;;1.20;;
11004;SDS011;5555;59.622;16.556;2023-02-01T14:26:56;1.80;;;0.90;;
11004;SDS011;5555;59.622;16.556;2023-02-01T14:29:34;2.03;;;1.00;;
11004;SDS011;5555;59.622;16.556;2023-02-01T14:32:18;3.97;;;1.27;;
11004;SDS011;5555;59.622;16.556;2023-02-01T14:40:00;3.50;;;1.10;;
11004;SDS011;5555;59.622;16.556;2023-02-01T14:47:52;1.90;;;0.90;;
11004;SDS011;5555;59.622;16.556;2023-02-01T14:55:37;5.17;;;1.30;;
11004;SDS011;5555;59.622;16.556;2023-02-01T14:58:18;2.80;;;0.90;;
11004;SDS011;5555;59.622;16.556;2023-02-01T15:01:01;3.47;;;1.33;;
11004;SDS011;5555;59.622;16.556;2023-02-01T15:06:04;2.47;;;1.23;;
11004;SDS011;5555;59.622;16.556;2023-02-01T15:08:48;1.93;;;1.23;;
11004;SDS011;5555;59.622;16.556;2023-02-01T15:11:14;1.57;;;1.00;;
11004;SDS011;5555;59.622;16.556;2023-02-01T15:13:47;4.77;;;1.07;;
11004;SDS011;5555;59.622;16.556;2023-02-01T15:16:15;2.10;;;1.07;;
11004;SDS011;5555;59.622;16.556;2023-02-01T15:18:42;2.67;;;1.20;;
11004;SDS011;5555;59.622;16.556;2023-02-01T15:21:41;2.20;;;1.27;;
11004;SDS011;5555;59.622;16.556;2023-02-01T15:24:11;4.70;;;1.53;;
11004;SDS011;5555;59.622;16.556;2023-02-01T15:26:38;2.03;;;1.17;;
11004;SDS011;5555;59.622;16.556;2023-02-01T15:29:04;4.10;;;1.30;;
11004;SDS011;5555;59.622;16.556;2023-02-01T15:31:31;2.83;;;1.47;;
11004;SDS011;5555;59.622;16.556;2023-02-01T15:34:01;2.07;;;1.30;;
11004;SDS011;5555;59.622;16.556;2023-02-01T15:36:27;2.70;;;1.20;;
11004;SDS011;5555;59.622;16.556;2023-02-01T15:41:45;4.60;;;1.50;;
11004;SDS011;5555;59.622;16.556;2023-02-01T15:47:05;3.87;;;1.67;;
11004;SDS011;5555;59.622;16.556;2023-02-01T15:49:39;3.00;;;1.20;;
11004;SDS011;5555;59.622;16.556;2023-02-01T15:52:16;3.37;;;1.97;;
11004;SDS011;5555;59.622;16.556;2023-02-01T15:54:54;2.80;;;1.60;;
11004;SDS011;5555;59.622;16.556;2023-02-01T15:57:26;3.30;;;1.40;;
11004;SDS011;5555;59.622;16.556;2023-02-01T15:59:58;3.03;;;1.20;;
11004;SDS011;5555;59.622;16.556;2023-02-01T16:04:59;3.60;;;1.30;;
11004;SDS011;5555;59.622;16.556;2023-02-01T16:07:28;3.70;;;1.63;;
11004;SDS011;5555;59.622;16.556;2023-02-01T16:09:56;3.40;;;1.80;;
11004;SDS011;5555;59.622;16.556;2023-02-01T16:14:56;3.40;;;1.90;;
11004;SDS011;5555;59.622;16.556;2023-02-01T16:17:22;2.33;;;1.40;;
11004;SDS011;5555;59.622;16.556;2023-02-01T16:19:47;3.07;;;1.93;;
11004;SDS011;5555;59.622;16.556;2023-02-01T16:22:13;4.30;;;2.10;;
11004;SDS011;5555;59.622;16.556;2023-02-01T16:24:39;3.07;;;1.40;;
11004;SDS011;5555;59.622;16.556;2023-02-01T16:27:04;4.93;;;2.57;;
11004;SDS011;5555;59.622;16.556;2023-02-01T16:29:32;3.70;;;1.90;;
11004;SDS011;5555;59.622;16.556;2023-02-01T16:31:58;5.73;;;2.50;;
11004;SDS011;5555;59.622;16.556;2023-02-01T16:34:24;3.33;;;1.80;;
11004;SDS011;5555;59.622;16.556;2023-02-01T16:36:50;5.07;;;2.23;;
11004;SDS011;5555;59.622;16.556;2023-02-01T16:39:17;5.37;;;2.17;;
11004;SDS011;5555;59.622;16.556;2023-02-01T16:41:44;4.63;;;2.00;;
11004;SDS011;5555;59.622;16.556;2023-02-01T16:44:10;5.70;;;2.10;;
11004;SDS011;5555;59.622;16.556;2023-02-01T16:46:38;5.33;;;2.13;;
11004;SDS011;5555;59.622;16.556;2023-02-01T16:49:05;4.57;;;2.10;;
11004;SDS011;5555;59.622;16.556;2023-02-01T16:51:40;6.00;;;3.10;;
11004;SDS011;5555;59.622;16.556;2023-02-01T16:54:07;4.27;;;2.63;;
11004;SDS011;5555;59.622;16.556;2023-02-01T16:56:33;4.40;;;2.37;;
11004;SDS011;5555;59.622;16.556;2023-02-01T16:59:00;5.33;;;2.70;;
11004;SDS011;5555;59.622;16.556;2023-02-01T17:01:26;5.03;;;2.83;;
11004;SDS011;5555;59.622;16.556;2023-02-01T17:03:52;3.33;;;2.37;;
11004;SDS011;5555;59.622;16.556;2023-02-01T17:06:19;4.63;;;2.67;;
11004;SDS011;5555;59.622;16.556;2023-02-01T17:08:53;4.30;;;2.77;;
11004;SDS011;5555;59.622;16.556;2023-02-01T17:11:20;4.63;;;3.23;;
11004;SDS011;5555;59.622;16.556;2023-02-01T17:13:46;3.83;;;2.83;;
11004;SDS011;5555;59.622;16.556;2023-02-01T17:18:44;6.47;;;3.37;;
11004;SDS011;5555;59.622;16.556;2023-02-01T17:21:14;4.40;;;3.43;;
11004;SDS011;5555;59.622;16.556;2023-02-01T17:23:39;6.93;;;3.60;;
11004;SDS011;5555;59.622;16.556;2023-02-01T17:26:08;8.73;;;3.80;;
11004;SDS011;5555;59.622;16.556;2023-02-01T17:28:34;5.53;;;3.37;;
11004;SDS011;5555;59.622;16.556;2023-02-01T17:31:00;5.73;;;3.57;;
11004;SDS011;5555;59.622;16.556;2023-02-01T17:33:44;4.77;;;3.00;;
11004;SDS011;5555;59.622;16.556;2023-02-01T17:36:14;5.60;;;3.30;;
11004;SDS011;5555;59.622;16.556;2023-02-01T17:38:41;2.90;;;2.50;;
11004;SDS011;5555;59.622;16.556;2023-02-01T17:41:10;5.93;;;3.13;;
11004;SDS011;5555;59.622;16.556;2023-02-01T17:43:37;5.77;;;3.03;;
11004;SDS011;5555;59.622;16.556;2023-02-01T17:46:10;6.27;;;2.97;;